Time;durP1;ratioP1;P1;durP2;ratioP2;P2;SDS_P1;SDS_P2;PMS_P1;PMS_P2;Temp;Humidity;BMP_temperature;BMP_pressure;BME280_temperature;BME280_humidity;BME280_pressure;Samples;Min_cycle;Max_cycle;Signal;HPM_P1;HPM_P2
2023/01/31 00:03:54;;;;;;;7.72;3.70;;;;;;;3.93;100.00;102478.91;10422484;28;20469;-67
2023/01/31 00:08:55;;;;;;;19.83;5.18;;;;;;;4.05;100.00;102471.75;10424193;28;20075;-67
2023/01/31 00:13:57;;;;;;;13.57;5.18;;;;;;;4.13;100.00;102467.50;10421538;28;20392;-67
2023/01/31 00:18:57;;;;;;;13.18;4.35;;;;;;;4.11;100.00;102461.41;10453840;28;20029;-67
2023/01/31 00:23:58;;;;;;;11.25;5.25;;;;;;;4.17;100.00;102446.69;10423382;28;20096;-67
2023/01/31 00:29:00;;;;;;;7.72;3.38;;;;;;;4.14;100.00;102441.56;10421691;28;20428;-67
2023/01/31 00:34:01;;;;;;;11.80;4.75;;;;;;;4.11;100.00;102418.50;10453886;28;20168;-67
2023/01/31 00:39:02;;;;;;;11.88;4.28;;;;;;;4.05;100.00;102420.81;10421434;28;20146;-66
2023/01/31 00:44:02;;;;;;;11.25;3.80;;;;;;;3.99;100.00;102405.19;10420132;28;20033;-66
2023/01/31 00:49:03;;;;;;;24.90;6.55;;;;;;;3.96;100.00;102396.44;10421746;28;20030;-67
2023/01/31 00:54:03;;;;;;;12.52;4.78;;;;;;;3.92;100.00;102391.41;10419506;28;20466;-67
2023/01/31 00:59:07;;;;;;;8.70;4.15;;;;;;;3.95;100.00;102388.50;10420174;28;20091;-67
2023/01/31 01:04:07;;;;;;;10.35;4.70;;;;;;;3.95;100.00;102380.47;10451591;28;20045;-66
2023/01/31 01:09:08;;;;;;;18.35;5.60;;;;;;;4.02;100.00;102386.19;10452626;28;20493;-66
2023/01/31 01:14:08;;;;;;;20.83;4.65;;;;;;;4.06;100.00;102368.94;10419358;28;20124;-66
2023/01/31 01:19:14;;;;;;;33.08;7.95;;;;;;;4.09;100.00;102366.88;10421959;28;20465;-67
2023/01/31 01:24:17;;;;;;;24.88;7.47;;;;;;;4.09;100.00;102361.50;10421164;28;20105;-68
2023/01/31 01:29:17;;;;;;;21.60;5.72;;;;;;;4.08;100.00;102357.09;10424582;28;20092;-67
2023/01/31 01:34:18;;;;;;;34.85;7.15;;;;;;;4.15;100.00;102370.91;10423902;28;20033;-67
2023/01/31 01:39:19;;;;;;;14.90;5.47;;;;;;;4.31;100.00;102376.75;10422719;28;20065;-67
2023/01/31 01:44:44;;;;;;;25.50;8.07;;;;;;;4.53;100.00;102375.06;10453147;28;20076;-66
2023/01/31 01:49:47;;;;;;;27.40;8.00;;;;;;;4.64;100.00;102358.97;10422644;28;20037;-67
2023/01/31 01:55:03;;;;;;;12.07;5.63;;;;;;;4.85;100.00;102370.66;10422526;28;20040;-67
2023/01/31 02:00:13;;;;;;;23.07;8.87;;;;;;;4.99;100.00;102377.59;10421162;28;20029;-67
2023/01/31 02:05:16;;;;;;;28.00;8.70;;;;;;;5.13;100.00;102371.94;10420011;28;20029;-67
2023/01/31 02:10:21;;;;;;;22.17;7.35;;;;;;;5.18;100.00;102360.81;10417327;28;20045;-67
2023/01/31 02:15:22;;;;;;;16.00;6.25;;;;;;;5.21;100.00;102375.84;10418134;28;20029;-66
2023/01/31 02:20:31;;;;;;;20.10;8.70;;;;;;;5.07;100.00;102368.91;10432106;28;20398;-67
2023/01/31 02:25:59;;;;;;;28.25;9.02;;;;;;;4.95;100.00;102364.56;10417379;28;20421;-67
2023/01/31 02:31:30;;;;;;;20.77;7.63;;;;;;;4.87;100.00;102367.84;10449084;28;20432;-67
2023/01/31 02:37:02;;;;;;;24.00;7.57;;;;;;;4.80;100.00;102362.13;10416140;28;20029;-67
2023/01/31 02:42:08;;;;;;;18.45;8.98;;;;;;;4.86;100.00;102356.25;10443880;28;20087;-67
2023/01/31 02:47:30;;;;;;;23.93;7.33;;;;;;;5.03;100.00;102351.34;10415671;28;20029;-67
2023/01/31 02:52:34;;;;;;;16.75;7.28;;;;;;;5.12;100.00;102345.22;10415687;28;20038;-67
2023/01/31 02:57:34;;;;;;;26.38;7.68;;;;;;;5.27;100.00;102335.06;10431310;28;20121;-67
2023/01/31 03:02:35;;;;;;;28.25;9.02;;;;;;;5.29;100.00;102336.59;10447982;28;20124;-66
2023/01/31 03:07:36;;;;;;;14.00;7.57;;;;;;;5.22;100.00;102327.34;10415729;28;20084;-67
2023/01/31 03:12:46;;;;;;;21.52;7.75;;;;;;;5.33;100.00;102335.38;10414414;28;20036;-68
2023/01/31 03:18:09;;;;;;;17.50;8.07;;;;;;;5.24;100.00;102330.78;10415719;28;20033;-67
2023/01/31 03:23:15;;;;;;;21.17;6.38;;;;;;;5.20;100.00;102336.50;10415528;28;20049;-67
2023/01/31 03:28:17;;;;;;;14.30;6.47;;;;;;;5.16;100.00;102325.19;10430270;28;20037;-67
2023/01/31 03:33:51;;;;;;;19.70;8.15;;;;;;;5.15;100.00;102319.94;10430515;28;20042;-67
2023/01/31 03:39:02;;;;;;;25.02;8.25;;;;;;;5.16;100.00;102317.13;10413615;28;20056;-66
2023/01/31 03:44:07;;;;;;;29.48;8.52;;;;;;;5.25;100.00;102302.09;10446961;28;20373;-68
2023/01/31 03:49:09;;;;;;;23.05;8.18;;;;;;;5.36;100.00;102297.53;10415476;28;20512;-67
2023/01/31 03:54:13;;;;;;;20.63;6.78;;;;;;;5.45;100.00;102298.56;10429771;28;20366;-67
2023/01/31 03:59:19;;;;;;;32.05;8.18;;;;;;;5.61;100.00;102314.22;10429931;28;20116;-67
2023/01/31 04:04:25;;;;;;;26.10;5.60;;;;;;;5.77;100.00;102303.88;10431167;28;20045;-67
2023/01/31 04:09:26;;;;;;;22.80;6.38;;;;;;;5.83;100.00;102302.50;10413956;28;20262;-68
2023/01/31 04:14:27;;;;;;;25.35;6.30;;;;;;;5.91;100.00;102302.72;10413772;28;20425;-67
2023/01/31 04:19:27;;;;;;;22.90;6.55;;;;;;;5.95;100.00;102297.94;10414230;28;20045;-66
2023/01/31 04:24:27;;;;;;;21.60;5.82;;;;;;;5.98;100.00;102284.25;10414709;28;20061;-66
2023/01/31 04:29:29;;;;;;;27.15;6.07;;;;;;;6.02;100.00;102269.53;10412180;28;20123;-67
2023/01/31 04:34:30;;;;;;;22.77;5.78;;;;;;;6.01;100.00;102268.69;10413972;28;20037;-67
2023/01/31 04:39:30;;;;;;;13.90;4.88;;;;;;;6.02;100.00;102253.41;10413785;28;20382;-66
2023/01/31 04:44:31;;;;;;;11.95;4.15;;;;;;;6.05;100.00;102264.72;10420838;28;20041;-67
2023/01/31 04:49:31;;;;;;;16.85;4.95;;;;;;;6.08;100.00;102246.63;10420932;28;20067;-67
2023/01/31 04:54:31;;;;;;;20.20;6.13;;;;;;;6.12;100.00;102258.81;10452082;28;20037;-67
2023/01/31 04:59:32;;;;;;;20.80;5.97;;;;;;;6.11;100.00;102249.91;10419956;28;20025;-67
2023/01/31 05:04:32;;;;;;;18.70;3.85;;;;;;;6.17;100.00;102241.28;10420256;28;20442;-66
2023/01/31 05:09:32;;;;;;;21.10;5.25;;;;;;;6.21;100.00;102223.03;10419325;28;20044;-67
2023/01/31 05:14:33;;;;;;;21.75;6.28;;;;;;;6.05;100.00;102221.72;10420468;28;20057;-67
2023/01/31 05:19:34;;;;;;;15.13;4.47;;;;;;;6.10;100.00;102239.28;10419389;28;20033;-67
2023/01/31 05:24:35;;;;;;;19.10;5.28;;;;;;;6.05;100.00;102245.91;10420040;28;20088;-67
2023/01/31 05:29:35;;;;;;;13.60;5.50;;;;;;;5.95;100.00;102236.09;10451474;28;20048;-66
2023/01/31 05:34:36;;;;;;;20.55;5.85;;;;;;;5.90;100.00;102231.09;10419063;28;20030;-67
2023/01/31 05:39:36;;;;;;;15.00;5.72;;;;;;;5.93;100.00;102238.06;10451499;28;20044;-68
2023/01/31 05:44:37;;;;;;;21.08;5.65;;;;;;;6.00;100.00;102239.25;10419301;28;20095;-66
2023/01/31 05:49:37;;;;;;;18.38;6.20;;;;;;;6.04;100.00;102251.44;10418554;28;20370;-67
2023/01/31 05:54:38;;;;;;;24.90;6.03;;;;;;;6.12;100.00;102248.91;10417725;28;20039;-68
2023/01/31 05:59:38;;;;;;;5.95;4.20;;;;;;;6.17;100.00;102235.91;10418540;28;20033;-67
2023/01/31 06:04:38;;;;;;;15.55;4.90;;;;;;;6.20;100.00;102237.50;10417148;28;20048;-68
2023/01/31 06:09:40;;;;;;;19.58;5.50;;;;;;;6.27;100.00;102244.88;10354131;28;20052;-68
2023/01/31 06:14:41;;;;;;;18.88;6.50;;;;;;;6.28;100.00;102243.03;10418367;28;20120;-67
2023/01/31 06:19:41;;;;;;;14.80;4.28;;;;;;;6.34;100.00;102233.56;10418489;28;20365;-67
2023/01/31 06:24:42;;;;;;;21.70;7.47;;;;;;;6.33;100.00;102224.66;10416825;28;20045;-67
2023/01/31 06:29:42;;;;;;;15.45;6.80;;;;;;;6.35;100.00;102221.81;10418409;28;20441;-66
2023/01/31 06:34:43;;;;;;;15.48;4.47;;;;;;;6.31;100.00;102234.69;10417158;28;20030;-67
2023/01/31 06:39:43;;;;;;;12.50;4.65;;;;;;;6.21;100.00;102210.44;10416378;28;20033;-66
2023/01/31 06:44:44;;;;;;;8.63;3.97;;;;;;;6.13;100.00;102202.22;10415032;28;20123;-66
2023/01/31 06:49:44;;;;;;;11.73;3.78;;;;;;;6.13;100.00;102186.09;10448016;28;20029;-66
2023/01/31 06:54:44;;;;;;;28.40;5.97;;;;;;;6.13;100.00;102188.78;10415601;28;20512;-68
2023/01/31 06:59:45;;;;;;;20.80;5.45;;;;;;;6.18;100.00;102177.59;10415767;28;20064;-67
2023/01/31 07:04:45;;;;;;;6.25;4.45;;;;;;;6.15;100.00;102157.19;10414730;28;20121;-67
2023/01/31 07:09:45;;;;;;;13.27;6.80;;;;;;;6.16;100.00;102152.66;10415462;28;20033;-68
2023/01/31 07:14:46;;;;;;;8.23;4.97;;;;;;;6.11;100.00;102154.94;10414696;28;20033;-66
2023/01/31 07:19:46;;;;;;;13.75;4.47;;;;;;;6.08;100.00;102153.34;10414781;28;20041;-66
2023/01/31 07:24:49;;;;;;;17.55;5.65;;;;;;;6.16;100.00;102161.59;10414867;28;20040;-66
2023/01/31 07:29:49;;;;;;;10.98;4.15;;;;;;;6.24;100.00;102156.38;10446867;28;20430;-67
2023/01/31 07:34:49;;;;;;;14.80;3.78;;;;;;;6.30;100.00;102160.34;10415924;28;20050;-68
2023/01/31 07:39:50;;;;;;;11.38;3.33;;;;;;;6.31;100.00;102137.00;10414507;28;20072;-66
2023/01/31 07:44:50;;;;;;;13.75;4.78;;;;;;;6.29;100.00;102126.38;10446594;28;20038;-67
2023/01/31 07:49:51;;;;;;;6.32;4.10;;;;;;;6.29;100.00;102116.47;10416476;28;20037;-66
2023/01/31 07:54:51;;;;;;;10.68;5.90;;;;;;;6.15;100.00;102124.91;10414818;28;20041;-67
2023/01/31 07:59:52;;;;;;;10.10;3.80;;;;;;;6.13;100.00;102129.59;10414505;28;20033;-66
2023/01/31 08:04:52;;;;;;;13.55;4.68;;;;;;;6.14;100.00;102127.75;10414218;28;20527;-67
2023/01/31 08:09:53;;;;;;;13.15;4.80;;;;;;;5.99;100.00;102135.34;10414935;28;20120;-67
2023/01/31 08:14:53;;;;;;;11.30;3.75;;;;;;;5.90;100.00;102120.84;10414548;28;20121;-66
2023/01/31 08:19:53;;;;;;;13.88;3.83;;;;;;;5.96;100.00;102114.13;10420202;28;20287;-67
2023/01/31 08:24:54;;;;;;;11.07;3.15;;;;;;;5.94;100.00;102100.81;10421991;28;20083;-67
2023/01/31 08:29:54;;;;;;;15.02;4.03;;;;;;;5.86;100.00;102106.00;10422612;28;20029;-67
2023/01/31 08:34:54;;;;;;;17.52;4.72;;;;;;;5.90;100.00;102095.81;10421257;28;20041;-67
2023/01/31 08:39:55;;;;;;;9.23;3.63;;;;;;;5.98;100.00;102096.88;10421447;28;20029;-67
2023/01/31 08:44:55;;;;;;;17.92;4.07;;;;;;;6.47;100.00;102100.47;10453575;28;20389;-67
2023/01/31 08:49:56;;;;;;;32.83;6.50;;;;;;;6.58;100.00;102080.66;10420773;28;20044;-68
2023/01/31 08:54:56;;;;;;;23.05;5.68;;;;;;;6.67;100.00;102090.56;10435797;28;20119;-67
2023/01/31 08:59:56;;;;;;;21.63;5.35;;;;;;;6.58;100.00;102112.94;10420500;28;20065;-68
2023/01/31 09:04:57;;;;;;;18.05;5.90;;;;;;;6.78;100.00;102107.56;10420308;28;20038;-67
2023/01/31 09:09:57;;;;;;;21.52;4.90;;;;;;;6.73;100.00;102100.75;10419424;28;20029;-67
2023/01/31 09:14:58;;;;;;;17.52;6.13;;;;;;;6.85;100.00;102101.44;10419900;28;20115;-67
2023/01/31 09:19:58;;;;;;;21.20;3.67;;;;;;;6.96;100.00;102078.91;10419655;28;20131;-68
2023/01/31 09:24:59;;;;;;;11.65;5.28;;;;;;;7.51;100.00;102064.69;10419808;28;20123;-67
2023/01/31 09:29:59;;;;;;;25.67;6.47;;;;;;;8.41;100.00;102063.00;10418587;28;20124;-68
2023/01/31 09:35:00;;;;;;;19.13;4.20;;;;;;;8.52;100.00;102043.84;10419215;28;20045;-67
2023/01/31 09:40:00;;;;;;;22.65;5.00;;;;;;;7.93;100.00;102040.75;10419133;28;20029;-68
2023/01/31 09:45:31;;;;;;;27.65;5.90;;;;;;;7.65;100.00;102038.06;10418911;28;20041;-67
2023/01/31 09:50:40;;;;;;;21.33;4.88;;;;;;;7.64;100.00;102027.44;10417378;28;20431;-68
2023/01/31 09:55:53;;;;;;;10.88;4.35;;;;;;;7.69;100.00;102039.47;10417556;28;20075;-67
2023/01/31 10:01:06;;;;;;;21.98;4.55;;;;;;;7.69;100.00;102044.88;10446773;28;20025;-68
2023/01/31 10:06:13;;;;;;;15.02;4.97;;;;;;;7.97;100.00;102063.69;10418765;28;20450;-67
2023/01/31 10:11:26;;;;;;;16.75;6.80;;;;;;;8.01;100.00;102070.50;10418016;28;20052;-67
2023/01/31 10:16:37;;;;;;;5.82;3.58;;;;;;;7.94;100.00;102072.09;10416430;28;20043;-68
2023/01/31 10:21:40;;;;;;;20.73;5.72;;;;;;;7.98;100.00;102073.50;10448830;28;20083;-68
2023/01/31 10:26:41;;;;;;;13.48;4.82;;;;;;;8.01;100.00;102067.81;10448727;28;20036;-67
2023/01/31 10:32:05;;;;;;;13.23;5.50;;;;;;;8.01;100.00;102065.13;10417989;28;20033;-67
2023/01/31 10:37:18;;;;;;;29.52;6.05;;;;;;;8.11;100.00;102073.16;10414561;28;20053;-68
2023/01/31 10:42:32;;;;;;;20.38;5.75;;;;;;;8.24;100.00;102062.81;10447428;28;20033;-67
2023/01/31 10:47:36;;;;;;;20.35;6.45;;;;;;;8.17;100.00;102045.56;10448664;28;20073;-68
2023/01/31 10:53:01;;;;;;;22.25;6.47;;;;;;;8.20;100.00;102042.56;10431279;28;20033;-67
2023/01/31 10:58:01;;;;;;;17.80;4.50;;;;;;;8.21;100.00;102068.53;10417184;28;20083;-67
2023/01/31 11:03:01;;;;;;;18.77;4.35;;;;;;;8.29;100.00;102065.03;10397939;28;20061;-67
2023/01/31 11:08:12;;;;;;;14.52;4.85;;;;;;;8.30;100.00;102055.97;10414194;28;20438;-67
2023/01/31 11:13:16;;;;;;;13.77;4.25;;;;;;;8.40;100.00;102078.34;10430555;28;20044;-67
2023/01/31 11:18:34;;;;;;;14.55;4.78;;;;;;;8.40;100.00;102078.34;10415264;28;20029;-68
2023/01/31 11:23:35;;;;;;;19.20;4.88;;;;;;;8.40;100.00;102075.66;10417136;28;20484;-67
2023/01/31 11:28:39;;;;;;;21.00;5.22;;;;;;;8.44;100.00;102063.53;10414830;28;20049;-67
2023/01/31 11:33:44;;;;;;;10.05;4.82;;;;;;;8.43;100.00;102056.44;10429594;28;20029;-67
2023/01/31 11:38:45;;;;;;;10.27;5.88;;;;;;;8.35;100.00;102072.53;10414788;28;20037;-68
2023/01/31 11:43:45;;;;;;;13.13;5.40;;;;;;;8.40;100.00;102064.84;10412893;28;20025;-67
2023/01/31 11:48:46;;;;;;;15.52;5.30;;;;;;;8.45;100.00;102072.47;10414107;28;20052;-68
2023/01/31 11:53:48;;;;;;;24.48;6.10;;;;;;;8.53;100.00;102068.00;10453946;28;20477;-68
2023/01/31 11:58:51;;;;;;;23.08;5.80;;;;;;;8.52;100.00;102044.72;10454481;28;20090;-67
2023/01/31 12:04:00;;;;;;;12.27;4.70;;;;;;;8.58;100.00;102045.94;10453794;28;20108;-67
2023/01/31 12:09:02;;;;;;;12.85;5.72;;;;;;;8.63;100.00;102040.06;10422891;28;20049;-68
2023/01/31 12:14:05;;;;;;;18.10;5.10;;;;;;;8.64;100.00;102037.19;10453975;28;20103;-68
2023/01/31 12:19:11;;;;;;;14.00;5.38;;;;;;;8.78;100.00;102033.09;10421920;28;20045;-67
2023/01/31 12:24:43;;;;;;;8.53;4.60;;;;;;;8.85;100.00;102018.78;10421345;28;20045;-67
2023/01/31 12:30:15;;;;;;;15.18;4.50;;;;;;;8.98;100.00;102006.72;10411378;28;20090;-68
2023/01/31 12:35:19;;;;;;;8.35;3.90;;;;;;;9.11;100.00;102004.44;10450507;28;20029;-68
2023/01/31 12:40:39;;;;;;;10.43;4.05;;;;;;;9.22;100.00;102001.47;10419767;28;20037;-68
2023/01/31 12:46:17;;;;;;;10.85;5.03;;;;;;;9.41;100.00;102005.78;10435003;28;20099;-68
2023/01/31 12:51:34;;;;;;;11.35;3.42;;;;;;;9.42;100.00;101993.09;10450038;28;20033;-66
2023/01/31 12:56:41;;;;;;;18.00;5.55;;;;;;;9.85;100.00;101983.06;10435726;28;20458;-67
2023/01/31 13:01:47;;;;;;;16.42;4.20;;;;;;;10.17;100.00;101983.09;10451675;28;20032;-68
2023/01/31 13:06:53;;;;;;;4.88;3.25;;;;;;;9.75;100.00;101965.13;10450881;28;20033;-67
2023/01/31 13:12:15;;;;;;;17.83;3.35;;;;;;;10.81;100.00;101972.41;10402232;28;20389;-68
2023/01/31 13:17:17;;;;;;;19.73;4.57;;;;;;;11.16;100.00;101979.25;10451859;28;20036;-68
2023/01/31 13:22:21;;;;;;;12.48;3.83;;;;;;;11.40;100.00;101989.16;10451797;28;20231;-67
2023/01/31 13:27:45;;;;;;;9.52;3.17;;;;;;;10.88;100.00;101976.13;10434398;28;20026;-67
2023/01/31 13:32:48;;;;;;;11.63;4.57;;;;;;;10.79;100.00;101993.44;10419374;28;20393;-67
2023/01/31 13:37:49;;;;;;;17.13;4.43;;;;;;;10.72;100.00;102003.28;10419068;28;20025;-68
2023/01/31 13:42:52;;;;;;;6.57;3.50;;;;;;;10.46;100.00;102006.16;10433764;28;20393;-67
2023/01/31 13:48:03;;;;;;;19.73;3.60;;;;;;;10.23;100.00;102014.06;10418678;28;20029;-68
2023/01/31 13:53:05;;;;;;;23.98;3.97;;;;;;;10.04;100.00;102011.69;10418763;28;20029;-67
2023/01/31 13:58:17;;;;;;;10.75;3.97;;;;;;;9.91;100.00;102025.69;10434610;28;20033;-68
2023/01/31 14:03:18;;;;;;;12.18;3.50;;;;;;;9.75;100.00;102048.13;10434091;28;20040;-67
2023/01/31 14:08:31;;;;;;;16.80;6.30;;;;;;;9.35;100.00;102049.66;10448807;28;20034;-67
2023/01/31 14:13:45;;;;;;;22.75;5.65;;;;;;;8.95;100.00;102051.09;10418128;28;20041;-67
2023/01/31 14:18:45;;;;;;;9.02;4.05;;;;;;;8.64;100.00;102041.75;10415752;28;20057;-68
2023/01/31 14:23:46;;;;;;;17.67;5.20;;;;;;;8.70;100.00;102060.03;10417661;28;20089;-68
2023/01/31 14:28:46;;;;;;;17.80;5.68;;;;;;;8.64;100.00;102068.75;10417530;28;20034;-67
2023/01/31 14:33:49;;;;;;;12.68;4.00;;;;;;;8.64;100.00;102075.00;10414270;28;20431;-68
2023/01/31 14:39:15;;;;;;;11.68;4.57;;;;;;;8.74;100.00;102074.91;10416254;28;20026;-66
2023/01/31 14:44:30;;;;;;;27.50;4.90;;;;;;;9.06;100.00;102071.59;10447736;28;20037;-68
2023/01/31 14:50:25;;;;;;;14.25;5.05;;;;;;;9.13;100.00;102091.59;10415698;28;20021;-68
2023/01/31 14:55:43;;;;;;;17.75;4.80;;;;;;;8.89;100.00;102078.75;10414339;28;20037;-67
2023/01/31 15:00:49;;;;;;;20.52;4.63;;;;;;;8.66;100.00;102077.56;10431004;28;20384;-67
2023/01/31 15:05:55;;;;;;;23.95;4.88;;;;;;;8.94;100.00;102071.03;10416673;28;20033;-68
2023/01/31 15:11:24;;;;;;;17.57;5.30;;;;;;;8.79;100.00;102075.31;10415176;28;20040;-67
2023/01/31 15:16:34;;;;;;;13.57;4.53;;;;;;;8.63;100.00;102085.97;10414497;28;20022;-67
2023/01/31 15:21:43;;;;;;;18.92;5.38;;;;;;;8.65;100.00;102081.25;10429414;28;20132;-67
2023/01/31 15:26:43;;;;;;;23.85;5.47;;;;;;;8.50;100.00;102106.09;10414957;28;20366;-67
2023/01/31 15:31:44;;;;;;;17.08;6.13;;;;;;;8.43;100.00;102110.44;10430427;28;20033;-67
2023/01/31 15:37:03;;;;;;;13.95;4.75;;;;;;;8.57;100.00;102114.44;10430302;28;20028;-67
2023/01/31 15:42:30;;;;;;;19.95;4.75;;;;;;;8.64;100.00;102112.81;10414523;28;20163;-67
2023/01/31 15:47:31;;;;;;;13.63;6.53;;;;;;;8.65;100.00;102111.81;10415722;28;20450;-67
2023/01/31 15:52:33;;;;;;;15.95;5.10;;;;;;;8.67;100.00;102117.06;10414517;28;20038;-67
2023/01/31 15:57:41;;;;;;;29.55;5.70;;;;;;;8.68;100.00;102129.53;10413318;28;20477;-67
2023/01/31 16:02:42;;;;;;;16.83;6.55;;;;;;;8.68;100.00;102140.34;10413923;28;20033;-68
2023/01/31 16:07:45;;;;;;;14.13;5.95;;;;;;;8.61;100.00;102151.78;10412917;28;20049;-67
2023/01/31 16:12:47;;;;;;;14.85;6.40;;;;;;;8.66;100.00;102163.97;10414594;28;20129;-68
2023/01/31 16:17:47;;;;;;;31.80;6.20;;;;;;;8.63;100.00;102164.28;10413832;28;20510;-68
2023/01/31 16:22:54;;;;;;;23.95;7.10;;;;;;;8.54;100.00;102166.88;10445573;28;20137;-67
2023/01/31 16:28:01;;;;;;;24.73;5.72;;;;;;;8.52;100.00;102154.53;10412430;28;20451;-67
2023/01/31 16:33:01;;;;;;;34.20;7.05;;;;;;;8.37;100.00;102155.03;10444473;28;20025;-67
2023/01/31 16:38:08;;;;;;;40.88;7.75;;;;;;;8.28;100.00;102160.50;10433131;28;20041;-68
2023/01/31 16:43:27;;;;;;;26.10;6.82;;;;;;;8.06;100.00;102151.81;10420840;28;20037;-67
2023/01/31 16:48:30;;;;;;;21.48;5.18;;;;;;;7.88;100.00;102145.50;10452926;28;20037;-68
2023/01/31 16:53:38;;;;;;;26.63;7.60;;;;;;;7.73;100.00;102150.56;10419692;28;20120;-67
2023/01/31 16:58:49;;;;;;;16.13;6.88;;;;;;;7.54;100.00;102154.19;10422022;28;20034;-68
2023/01/31 17:04:08;;;;;;;23.30;7.25;;;;;;;7.42;100.00;102163.44;10420471;28;20033;-67
2023/01/31 17:09:13;;;;;;;25.77;6.97;;;;;;;7.33;100.00;102157.06;10420131;28;20029;-67
2023/01/31 17:14:13;;;;;;;26.05;7.25;;;;;;;7.20;100.00;102159.22;10451154;28;20033;-67
2023/01/31 17:19:14;;;;;;;33.60;6.97;;;;;;;7.02;100.00;102160.94;10419573;28;20030;-68
2023/01/31 17:24:17;;;;;;;16.20;5.22;;;;;;;6.94;100.00;102167.91;10420766;28;20053;-67
2023/01/31 17:29:17;;;;;;;9.27;5.68;;;;;;;6.83;100.00;102167.19;10452624;28;20088;-67
2023/01/31 17:34:17;;;;;;;20.02;6.30;;;;;;;6.66;100.00;102158.81;10419323;28;20038;-67
2023/01/31 17:39:19;;;;;;;20.05;5.75;;;;;;;6.56;100.00;102160.66;10418451;28;20033;-66
2023/01/31 17:44:20;;;;;;;23.40;6.13;;;;;;;6.55;100.00;102158.97;10419342;28;20040;-67
2023/01/31 17:49:20;;;;;;;16.42;6.90;;;;;;;6.53;100.00;102164.47;10417836;28;20041;-67
2023/01/31 17:54:20;;;;;;;24.83;5.57;;;;;;;6.46;100.00;102160.66;10400385;28;20124;-67
2023/01/31 17:59:21;;;;;;;20.63;5.45;;;;;;;6.41;100.00;102167.44;10450412;28;20037;-67
2023/01/31 18:04:21;;;;;;;32.38;7.20;;;;;;;6.33;100.00;102159.22;10417493;28;20037;-67
2023/01/31 18:09:22;;;;;;;27.08;5.22;;;;;;;6.33;100.00;102167.31;10418968;28;20136;-66
2023/01/31 18:14:22;;;;;;;26.55;5.55;;;;;;;6.32;100.00;102173.66;10417128;28;20397;-67
2023/01/31 18:19:22;;;;;;;15.88;4.85;;;;;;;6.38;100.00;102162.34;10417666;28;20068;-67
2023/01/31 18:24:23;;;;;;;32.17;5.22;;;;;;;6.44;100.00;102170.69;10418782;28;20466;-67
2023/01/31 18:29:25;;;;;;;20.25;4.53;;;;;;;6.57;100.00;102165.06;10417624;28;20230;-68
2023/01/31 18:34:25;;;;;;;21.25;6.60;;;;;;;6.67;100.00;102165.09;10416194;28;20492;-67
2023/01/31 18:39:25;;;;;;;12.98;5.65;;;;;;;6.72;100.00;102170.88;10416651;28;20068;-67
2023/01/31 18:44:28;;;;;;;28.30;5.38;;;;;;;6.85;100.00;102173.28;10416651;28;20444;-68
2023/01/31 18:49:28;;;;;;;14.50;6.82;;;;;;;6.87;100.00;102171.31;10416422;28;20025;-67
2023/01/31 18:54:29;;;;;;;31.30;5.80;;;;;;;6.86;100.00;102158.81;10417113;28;20464;-67
2023/01/31 18:59:29;;;;;;;18.35;5.93;;;;;;;6.95;100.00;102157.97;10414580;28;20485;-68
2023/01/31 19:04:29;;;;;;;22.80;4.70;;;;;;;6.85;100.00;102165.22;10415136;28;20083;-67
2023/01/31 19:09:30;;;;;;;18.88;5.93;;;;;;;6.72;100.00;102163.66;10416242;28;20068;-67
2023/01/31 19:14:30;;;;;;;24.02;4.82;;;;;;;6.71;100.00;102153.88;10416054;28;20029;-67
2023/01/31 19:19:31;;;;;;;14.07;5.13;;;;;;;6.57;100.00;102165.06;10415277;28;20037;-67
2023/01/31 19:24:31;;;;;;;28.30;6.65;;;;;;;6.50;100.00;102158.53;10415941;28;20374;-67
2023/01/31 19:29:31;;;;;;;13.70;5.07;;;;;;;6.42;100.00;102153.88;10415818;28;20069;-67
2023/01/31 19:34:32;;;;;;;21.63;6.07;;;;;;;6.37;100.00;102141.81;10415668;28;20461;-67
2023/01/31 19:39:32;;;;;;;24.42;6.85;;;;;;;6.30;100.00;102149.59;10413523;28;20033;-67
2023/01/31 19:44:33;;;;;;;13.95;5.32;;;;;;;6.24;100.00;102156.38;10415157;28;20033;-67
2023/01/31 19:49:33;;;;;;;17.40;6.13;;;;;;;6.19;100.00;102142.50;10415306;28;20034;-67
2023/01/31 19:54:34;;;;;;;10.38;5.30;;;;;;;6.13;100.00;102140.38;10447269;28;20029;-67
2023/01/31 19:59:35;;;;;;;23.40;6.75;;;;;;;6.10;100.00;102137.09;10413448;28;20480;-67
2023/01/31 20:04:35;;;;;;;21.20;5.38;;;;;;;6.08;100.00;102147.13;10415784;28;20029;-67
2023/01/31 20:09:35;;;;;;;13.30;5.25;;;;;;;5.96;100.00;102144.53;10414975;28;20124;-67
2023/01/31 20:14:36;;;;;;;11.90;5.95;;;;;;;5.90;100.00;102163.88;10421294;28;20127;-67
2023/01/31 20:19:36;;;;;;;13.82;5.38;;;;;;;5.84;100.00;102153.69;10421661;28;20025;-68
2023/01/31 20:24:37;;;;;;;22.77;5.63;;;;;;;5.77;100.00;102144.44;10421865;28;20057;-67
2023/01/31 20:29:37;;;;;;;35.70;6.18;;;;;;;5.77;100.00;102147.13;10421724;28;20033;-67
2023/01/31 20:34:39;;;;;;;12.38;6.25;;;;;;;5.77;100.00;102131.84;10421872;28;20061;-67
2023/01/31 20:39:39;;;;;;;12.70;4.18;;;;;;;5.81;100.00;102127.09;10421183;28;20029;-66
2023/01/31 20:44:40;;;;;;;30.15;7.28;;;;;;;5.83;100.00;102128.63;10421121;28;20469;-67
2023/01/31 20:49:40;;;;;;;29.35;6.38;;;;;;;5.88;100.00;102119.31;10422125;28;20029;-67
2023/01/31 20:54:40;;;;;;;26.27;4.43;;;;;;;5.87;100.00;102115.78;10420716;28;20457;-66
2023/01/31 20:59:41;;;;;;;16.65;5.18;;;;;;;5.90;100.00;102103.88;10420841;28;20115;-66
2023/01/31 21:04:41;;;;;;;11.93;5.53;;;;;;;5.82;100.00;102105.44;10420653;28;20037;-67
2023/01/31 21:09:42;;;;;;;26.00;5.60;;;;;;;5.80;100.00;102115.44;10420840;28;20025;-67
2023/01/31 21:14:42;;;;;;;27.70;5.80;;;;;;;5.87;100.00;102109.53;10419849;28;20064;-66
2023/01/31 21:19:42;;;;;;;20.58;4.82;;;;;;;5.85;100.00;102106.16;10418978;28;20034;-67
2023/01/31 21:24:43;;;;;;;12.55;5.63;;;;;;;5.74;100.00;102099.91;10419782;28;20061;-67
2023/01/31 21:29:43;;;;;;;16.48;4.97;;;;;;;5.68;100.00;102095.06;10419766;28;20037;-68
2023/01/31 21:34:44;;;;;;;20.60;4.40;;;;;;;5.72;100.00;102092.94;10418992;28;20045;-67
2023/01/31 21:39:44;;;;;;;22.23;4.72;;;;;;;5.66;100.00;102096.19;10418983;28;20037;-67
2023/01/31 21:44:45;;;;;;;20.23;6.45;;;;;;;5.57;100.00;102089.78;10419159;28;20117;-67
2023/01/31 21:49:46;;;;;;;15.90;5.38;;;;;;;5.57;100.00;102087.94;10417752;28;20037;-67
2023/01/31 21:54:46;;;;;;;23.10;5.35;;;;;;;5.58;100.00;102075.34;10418510;28;20037;-66
2023/01/31 21:59:47;;;;;;;32.13;5.20;;;;;;;5.57;100.00;102065.59;10419037;28;20061;-67
2023/01/31 22:04:47;;;;;;;32.03;6.78;;;;;;;5.50;100.00;102069.81;10418261;28;20044;-67
2023/01/31 22:09:47;;;;;;;18.02;4.72;;;;;;;5.53;100.00;102066.88;10418977;28;20049;-67
2023/01/31 22:14:48;;;;;;;21.50;6.15;;;;;;;5.53;100.00;102061.50;10418420;28;20042;-66
2023/01/31 22:19:48;;;;;;;13.70;4.65;;;;;;;5.52;100.00;102060.63;10418702;28;20124;-66
2023/01/31 22:24:49;;;;;;;22.85;5.22;;;;;;;5.51;100.00;102066.13;10418076;28;20156;-67
2023/01/31 22:29:49;;;;;;;18.17;5.15;;;;;;;5.50;100.00;102075.19;10417886;28;20037;-66
2023/01/31 22:34:49;;;;;;;21.88;6.47;;;;;;;5.51;100.00;102071.50;10418078;28;20045;-66
2023/01/31 22:39:50;;;;;;;12.80;5.50;;;;;;;5.57;100.00;102073.66;10417366;28;20053;-66
2023/01/31 22:44:50;;;;;;;21.38;5.43;;;;;;;5.62;100.00;102084.00;10416795;28;20033;-67
2023/01/31 22:49:50;;;;;;;14.43;6.20;;;;;;;5.69;100.00;102087.84;10448560;28;20465;-69
2023/01/31 22:54:51;;;;;;;11.05;4.15;;;;;;;5.68;100.00;102092.38;10414419;28;20128;-66
2023/01/31 22:59:51;;;;;;;29.10;5.88;;;;;;;5.68;100.00;102091.50;10448294;28;20034;-66
2023/01/31 23:04:52;;;;;;;20.08;5.43;;;;;;;5.79;100.00;102089.56;10414924;28;20037;-66